Time;durP1;ratioP1;P1;durP2;ratioP2;P2;SDS_P1;SDS_P2;PMS_P1;PMS_P2;Temp;Humidity;BMP_temperature;BMP_pressure;BME280_temperature;BME280_humidity;BME280_pressure;Samples;Min_cycle;Max_cycle;Signal;HPM_P1;HPM_P2
2021/07/01 00:00:40;;;;;;;;;;;15.80;99.90;;;;;;5043483;28;19962;-44
2021/07/01 00:03:06;;;;;;;;;;;15.80;99.90;;;;;;5042031;28;19909;-47
2021/07/01 00:05:33;;;;;;;;;;;15.80;99.90;;;;;;5041796;28;20205;-45
2021/07/01 00:07:58;;;;;;;;;;;15.80;99.90;;;;;;5041091;28;20003;-46
2021/07/01 00:10:25;;;;;;;;;;;15.80;99.90;;;;;;5043226;28;19912;-50
2021/07/01 00:12:51;;;;;;;;;;;15.80;99.90;;;;;;5041281;28;19920;-46
2021/07/01 00:15:22;;;;;;;;;;;15.80;99.90;;;;;;5043207;28;20370;-45
2021/07/01 00:17:48;;;;;;;;;;;15.80;99.90;;;;;;5042486;28;20003;-45
2021/07/01 00:20:14;;;;;;;;;;;15.80;99.90;;;;;;5042811;28;20011;-47
2021/07/01 00:22:39;;;;;;;;;;;15.80;99.90;;;;;;5041871;28;19908;-45
2021/07/01 00:25:06;;;;;;;;;;;15.80;99.90;;;;;;5041264;28;19913;-49
2021/07/01 00:27:31;;;;;;;;;;;15.80;99.90;;;;;;5042744;28;19960;-49
2021/07/01 00:29:56;;;;;;;;;;;15.70;99.90;;;;;;5041145;28;19916;-48
2021/07/01 00:32:22;;;;;;;;;;;15.70;99.90;;;;;;5042489;28;19917;-47
2021/07/01 00:34:47;;;;;;;;;;;15.70;99.90;;;;;;5042099;28;19994;-48
2021/07/01 00:37:13;;;;;;;;;;;15.70;99.90;;;;;;5037192;28;20307;-52
2021/07/01 00:39:38;;;;;;;;;;;15.70;99.90;;;;;;5037662;28;19909;-45
2021/07/01 00:42:04;;;;;;;;;;;15.70;99.90;;;;;;5041735;28;19918;-47
2021/07/01 00:44:29;;;;;;;;;;;15.80;99.90;;;;;;5042760;28;20395;-46
2021/07/01 00:46:55;;;;;;;;;;;15.80;99.90;;;;;;5041815;28;19916;-51
2021/07/01 00:49:22;;;;;;;;;;;15.80;99.90;;;;;;5040774;28;20021;-46
2021/07/01 00:51:47;;;;;;;;;;;15.70;99.90;;;;;;5042406;28;19952;-52
2021/07/01 00:54:13;;;;;;;;;;;15.80;99.90;;;;;;5041018;28;19951;-44
2021/07/01 00:56:39;;;;;;;;;;;15.80;99.90;;;;;;5042495;28;19931;-44
2021/07/01 00:59:06;;;;;;;;;;;15.80;99.90;;;;;;5039642;28;20379;-44
2021/07/01 01:01:32;;;;;;;;;;;15.80;99.90;;;;;;5021876;28;20392;-47
2021/07/01 01:03:57;;;;;;;;;;;15.80;99.90;;;;;;5039120;28;19909;-49
2021/07/01 01:06:23;;;;;;;;;;;15.80;99.90;;;;;;5040815;28;19928;-47
2021/07/01 01:08:49;;;;;;;;;;;15.80;99.90;;;;;;5042138;28;19916;-48
2021/07/01 01:11:14;;;;;;;;;;;15.80;99.90;;;;;;5040626;28;19905;-49
2021/07/01 01:13:44;;;;;;;;;;;15.80;99.90;;;;;;5038849;28;20012;-48
2021/07/01 01:16:09;;;;;;;;;;;15.80;99.90;;;;;;5013285;28;19916;-50
2021/07/01 01:18:35;;;;;;;;;;;15.80;99.90;;;;;;5022187;28;19996;-48
2021/07/01 01:21:01;;;;;;;;;;;15.80;99.90;;;;;;5046839;28;20003;-46
2021/07/01 01:23:27;;;;;;;;;;;15.80;99.90;;;;;;5039839;28;19909;-48
2021/07/01 01:25:53;;;;;;;;;;;15.80;99.90;;;;;;5033376;28;19910;-51
2021/07/01 01:28:19;;;;;;;;;;;15.70;99.90;;;;;;5042369;28;19995;-44
2021/07/01 01:30:45;;;;;;;;;;;15.70;99.90;;;;;;5039321;28;20494;-47
2021/07/01 01:33:11;;;;;;;;;;;15.80;99.90;;;;;;5033695;28;19970;-47
2021/07/01 01:35:37;;;;;;;;;;;15.80;99.90;;;;;;5040400;28;20462;-44
2021/07/01 01:38:03;;;;;;;;;;;15.80;99.90;;;;;;5022629;28;19957;-47
2021/07/01 01:40:29;;;;;;;;;;;15.80;99.90;;;;;;5036710;28;19916;-44
2021/07/01 01:42:54;;;;;;;;;;;15.80;99.90;;;;;;5044578;28;20007;-48
2021/07/01 01:45:20;;;;;;;;;;;15.80;99.90;;;;;;5038060;28;19909;-44
2021/07/01 01:47:49;;;;;;;;;;;15.80;99.90;;;;;;5044425;28;19908;-47
2021/07/01 01:50:15;;;;;;;;;;;15.80;99.90;;;;;;5037789;28;20482;-47
2021/07/01 01:52:41;;;;;;;;;;;15.80;99.90;;;;;;5044610;28;19924;-46
2021/07/01 01:55:10;;;;;;;;;;;15.80;99.90;;;;;;5021436;28;19909;-46
2021/07/01 01:57:35;;;;;;;;;;;15.80;99.90;;;;;;5038185;28;19916;-46
2021/07/01 02:00:01;;;;;;;;;;;15.80;99.90;;;;;;5044358;28;19909;-46
2021/07/01 02:02:26;;;;;;;;;;;15.80;99.90;;;;;;5021740;28;20403;-44
2021/07/01 02:04:51;;;;;;;;;;;15.80;99.90;;;;;;5048386;28;19908;-47
2021/07/01 02:07:17;;;;;;;;;;;15.80;99.90;;;;;;5041905;28;19909;-44
2021/07/01 02:09:42;;;;;;;;;;;15.80;99.90;;;;;;5042112;28;19936;-44
2021/07/01 02:12:11;;;;;;;;;;;15.90;99.90;;;;;;5048177;28;19909;-46
2021/07/01 02:14:36;;;;;;;;;;;15.80;99.90;;;;;;5023706;28;20378;-44
2021/07/01 02:17:03;;;;;;;;;;;15.80;99.90;;;;;;5048661;28;19959;-46
2021/07/01 02:19:28;;;;;;;;;;;15.80;99.90;;;;;;5041627;28;20272;-44
2021/07/01 02:21:54;;;;;;;;;;;15.80;99.90;;;;;;5049311;28;19909;-45
2021/07/01 02:24:19;;;;;;;;;;;15.80;99.90;;;;;;5041483;28;20363;-44
2021/07/01 02:26:45;;;;;;;;;;;15.80;99.90;;;;;;5041595;28;19909;-45
2021/07/01 02:29:10;;;;;;;;;;;15.80;99.90;;;;;;5047550;28;20485;-50
2021/07/01 02:31:35;;;;;;;;;;;15.90;99.90;;;;;;5041335;28;19913;-46
2021/07/01 02:34:01;;;;;;;;;;;15.80;99.90;;;;;;5048322;28;20502;-44
2021/07/01 02:36:26;;;;;;;;;;;15.90;99.90;;;;;;5041251;28;19909;-45
2021/07/01 02:38:52;;;;;;;;;;;15.90;99.90;;;;;;5048919;28;19915;-45
2021/07/01 02:41:18;;;;;;;;;;;15.90;99.90;;;;;;5041288;28;19916;-44
2021/07/01 02:43:43;;;;;;;;;;;15.90;99.90;;;;;;5041611;28;19909;-46
2021/07/01 02:46:08;;;;;;;;;;;15.90;99.90;;;;;;5048040;28;19909;-47
2021/07/01 02:48:34;;;;;;;;;;;15.90;99.90;;;;;;5041161;28;19913;-45
2021/07/01 02:50:59;;;;;;;;;;;15.90;99.90;;;;;;5040909;28;20390;-47
2021/07/01 02:53:25;;;;;;;;;;;15.90;99.90;;;;;;5040893;28;20371;-47
2021/07/01 02:55:50;;;;;;;;;;;15.90;99.90;;;;;;5041138;28;20070;-44
2021/07/01 02:58:16;;;;;;;;;;;15.90;99.90;;;;;;5047370;28;19909;-45
2021/07/01 03:00:41;;;;;;;;;;;15.90;99.90;;;;;;5022931;28;19909;-47
2021/07/01 03:03:07;;;;;;;;;;;15.90;99.90;;;;;;5048067;28;19954;-51
2021/07/01 03:05:32;;;;;;;;;;;15.90;99.90;;;;;;5040591;28;19923;-44
2021/07/01 03:07:58;;;;;;;;;;;15.90;99.90;;;;;;5048748;28;19916;-44
2021/07/01 03:10:23;;;;;;;;;;;15.90;99.90;;;;;;5040947;28;20397;-43
2021/07/01 03:12:49;;;;;;;;;;;15.90;99.90;;;;;;5041409;28;19913;-45
2021/07/01 03:15:14;;;;;;;;;;;15.90;99.90;;;;;;5028995;28;19913;-44
2021/07/01 03:17:40;;;;;;;;;;;15.90;99.90;;;;;;5040712;28;19909;-47
2021/07/01 03:20:05;;;;;;;;;;;15.90;99.90;;;;;;5047846;28;19924;-44
2021/07/01 03:22:31;;;;;;;;;;;15.90;99.90;;;;;;5040717;28;20367;-44
2021/07/01 03:24:56;;;;;;;;;;;16.00;99.90;;;;;;5048186;28;19909;-44
2021/07/01 03:27:22;;;;;;;;;;;16.00;99.90;;;;;;5040405;28;19909;-48
2021/07/01 03:29:47;;;;;;;;;;;16.00;99.90;;;;;;5040288;28;19921;-47
2021/07/01 03:32:13;;;;;;;;;;;16.00;99.90;;;;;;5046565;28;19917;-45
2021/07/01 03:34:38;;;;;;;;;;;16.00;99.90;;;;;;5039901;28;20483;-46
2021/07/01 03:37:04;;;;;;;;;;;16.00;99.90;;;;;;5047498;28;19917;-45
2021/07/01 03:39:29;;;;;;;;;;;16.00;99.90;;;;;;5040607;28;20003;-45
2021/07/01 03:41:55;;;;;;;;;;;16.00;99.90;;;;;;5041170;28;19909;-47
2021/07/01 03:44:20;;;;;;;;;;;16.00;99.90;;;;;;5043791;28;19913;-47
2021/07/01 03:46:46;;;;;;;;;;;16.00;99.90;;;;;;5042603;28;20315;-44
2021/07/01 03:49:14;;;;;;;;;;;16.00;99.90;;;;;;5042948;28;19956;-48
2021/07/01 03:51:40;;;;;;;;;;;16.00;99.90;;;;;;5044064;28;19909;-46
2021/07/01 03:54:05;;;;;;;;;;;16.00;99.90;;;;;;5042149;28;20421;-48
2021/07/01 03:56:40;;;;;;;;;;;16.00;99.90;;;;;;5043397;28;19909;-49
2021/07/01 03:59:12;;;;;;;;;;;16.00;99.90;;;;;;5041047;28;19909;-44
2021/07/01 04:01:38;;;;;;;;;;;16.00;99.90;;;;;;5043363;28;20367;-48
2021/07/01 04:04:04;;;;;;;;;;;16.00;99.90;;;;;;5042036;28;19913;-44
2021/07/01 04:06:30;;;;;;;;;;;16.00;99.90;;;;;;5043265;28;19935;-45
2021/07/01 04:08:55;;;;;;;;;;;16.00;99.90;;;;;;5042806;28;19963;-48
2021/07/01 04:11:21;;;;;;;;;;;16.00;99.90;;;;;;5043562;28;19999;-47
2021/07/01 04:13:46;;;;;;;;;;;15.90;99.90;;;;;;5041205;28;20329;-47
2021/07/01 04:16:12;;;;;;;;;;;15.90;99.90;;;;;;5042291;28;19909;-49
2021/07/01 04:18:37;;;;;;;;;;;15.90;99.90;;;;;;5043210;28;19962;-45
2021/07/01 04:21:03;;;;;;;;;;;15.90;99.90;;;;;;5041665;28;19909;-47
2021/07/01 04:23:29;;;;;;;;;;;15.90;99.90;;;;;;5042866;28;20331;-46
2021/07/01 04:25:54;;;;;;;;;;;15.90;99.90;;;;;;5023885;28;20007;-47
2021/07/01 04:28:20;;;;;;;;;;;15.90;99.90;;;;;;5042912;28;19908;-47
2021/07/01 04:30:46;;;;;;;;;;;15.90;99.90;;;;;;5023335;28;19909;-50
2021/07/01 04:33:11;;;;;;;;;;;15.90;99.90;;;;;;5041817;28;19924;-45
2021/07/01 04:35:37;;;;;;;;;;;16.00;99.90;;;;;;5042503;28;19916;-45
2021/07/01 04:38:02;;;;;;;;;;;16.00;99.90;;;;;;5041695;28;19909;-47
2021/07/01 04:40:28;;;;;;;;;;;16.00;99.90;;;;;;5042870;28;19954;-46
2021/07/01 04:42:53;;;;;;;;;;;16.00;99.90;;;;;;5041993;28;20283;-46
2021/07/01 04:45:18;;;;;;;;;;;15.90;99.90;;;;;;5041387;28;19909;-47
2021/07/01 04:47:44;;;;;;;;;;;15.90;99.90;;;;;;5042703;28;19982;-45
2021/07/01 04:50:10;;;;;;;;;;;16.00;99.90;;;;;;5041907;28;19916;-45
2021/07/01 04:52:35;;;;;;;;;;;16.00;99.90;;;;;;5042117;28;19909;-47
2021/07/01 04:55:01;;;;;;;;;;;16.00;99.90;;;;;;5040458;28;20317;-50
2021/07/01 04:57:26;;;;;;;;;;;16.00;99.90;;;;;;5024631;28;19943;-45
2021/07/01 04:59:52;;;;;;;;;;;15.90;99.90;;;;;;5042153;28;19944;-46
2021/07/01 05:02:17;;;;;;;;;;;15.90;99.90;;;;;;5041335;28;19916;-46
2021/07/01 05:04:43;;;;;;;;;;;15.90;99.90;;;;;;5041789;28;20039;-50
2021/07/01 05:07:08;;;;;;;;;;;15.90;99.90;;;;;;5041925;28;19930;-46
2021/07/01 05:09:34;;;;;;;;;;;15.90;99.90;;;;;;5042662;28;19920;-45
2021/07/01 05:12:02;;;;;;;;;;;15.80;99.90;;;;;;5040611;28;19916;-48
2021/07/01 05:14:28;;;;;;;;;;;15.80;99.90;;;;;;5041504;28;19912;-49
2021/07/01 05:16:53;;;;;;;;;;;15.80;99.90;;;;;;5041614;28;19955;-47
2021/07/01 05:19:19;;;;;;;;;;;15.90;99.90;;;;;;5041225;28;19916;-46
2021/07/01 05:21:44;;;;;;;;;;;15.80;99.90;;;;;;5042010;28;19991;-50
2021/07/01 05:24:10;;;;;;;;;;;15.90;99.90;;;;;;5041528;28;19917;-49
2021/07/01 05:26:35;;;;;;;;;;;15.80;99.90;;;;;;5041768;28;19909;-48
2021/07/01 05:29:00;;;;;;;;;;;15.90;99.90;;;;;;5040307;28;19915;-54
2021/07/01 05:31:26;;;;;;;;;;;15.90;99.90;;;;;;5041379;28;20252;-47
2021/07/01 05:33:51;;;;;;;;;;;15.90;99.90;;;;;;5047554;22;19925;-53
2021/07/01 05:36:17;;;;;;;;;;;15.90;99.90;;;;;;5029475;28;20213;-52
2021/07/01 05:38:42;;;;;;;;;;;15.90;99.90;;;;;;5034580;28;19909;-56
2021/07/01 05:41:08;;;;;;;;;;;15.90;99.90;;;;;;5034537;28;19963;-57
2021/07/01 05:43:34;;;;;;;;;;;16.00;99.90;;;;;;5034377;28;19917;-57
2021/07/01 05:46:01;;;;;;;;;;;16.00;99.90;;;;;;5016284;28;19909;-53
2021/07/01 05:48:27;;;;;;;;;;;16.00;99.90;;;;;;5034103;28;19917;-53
2021/07/01 05:51:03;;;;;;;;;;;16.00;99.90;;;;;;5033738;28;19913;-56
2021/07/01 05:53:36;;;;;;;;;;;16.10;99.90;;;;;;5034020;28;19921;-56
2021/07/01 05:56:02;;;;;;;;;;;16.10;99.90;;;;;;5033984;28;19932;-57
2021/07/01 05:58:28;;;;;;;;;;;16.10;99.90;;;;;;5016282;28;20379;-56
2021/07/01 06:00:53;;;;;;;;;;;16.10;99.90;;;;;;5034058;28;19917;-59
2021/07/01 06:03:19;;;;;;;;;;;16.10;99.90;;;;;;5034010;28;19923;-59
2021/07/01 06:05:45;;;;;;;;;;;16.10;99.90;;;;;;5017533;28;19909;-60
2021/07/01 06:08:11;;;;;;;;;;;16.10;99.90;;;;;;5034606;28;20608;-59
2021/07/01 06:10:40;;;;;;;;;;;16.10;99.90;;;;;;5033939;28;19970;-59
2021/07/01 06:13:07;;;;;;;;;;;16.10;99.90;;;;;;5033986;28;20024;-56
2021/07/01 06:15:33;;;;;;;;;;;16.10;99.90;;;;;;5033622;28;19916;-56
2021/07/01 06:17:59;;;;;;;;;;;16.20;99.90;;;;;;5033903;28;19979;-55
2021/07/01 06:20:25;;;;;;;;;;;16.20;99.90;;;;;;5015841;28;20000;-54
2021/07/01 06:22:51;;;;;;;;;;;16.20;99.90;;;;;;5039862;28;19996;-56
2021/07/01 06:25:16;;;;;;;;;;;16.20;99.90;;;;;;5033395;28;19913;-56
2021/07/01 06:27:42;;;;;;;;;;;16.20;99.90;;;;;;5033568;28;20397;-52
2021/07/01 06:30:14;;;;;;;;;;;16.20;99.90;;;;;;5033565;28;19909;-54
2021/07/01 06:32:45;;;;;;;;;;;16.20;99.90;;;;;;5033101;28;19913;-57
2021/07/01 06:35:14;;;;;;;;;;;16.20;99.90;;;;;;5033499;28;19913;-55
2021/07/01 06:37:41;;;;;;;;;;;16.20;99.90;;;;;;5033562;28;19956;-57
2021/07/01 06:40:08;;;;;;;;;;;16.20;99.90;;;;;;5033409;28;19909;-54
2021/07/01 06:42:39;;;;;;;;;;;16.20;99.90;;;;;;5033464;28;19956;-55
2021/07/01 06:45:05;;;;;;;;;;;16.20;99.90;;;;;;5032895;28;20411;-58
2021/07/01 06:47:31;;;;;;;;;;;16.30;99.90;;;;;;5015132;28;19910;-58
2021/07/01 06:49:57;;;;;;;;;;;16.30;99.90;;;;;;5033093;28;19909;-59
2021/07/01 06:52:22;;;;;;;;;;;16.30;99.90;;;;;;5015477;28;19916;-58
2021/07/01 06:54:48;;;;;;;;;;;16.30;99.90;;;;;;5033028;28;20391;-54
2021/07/01 06:57:14;;;;;;;;;;;16.30;99.90;;;;;;5033086;28;20641;-53
2021/07/01 06:59:40;;;;;;;;;;;16.30;99.90;;;;;;5033062;28;20421;-56
2021/07/01 07:02:07;;;;;;;;;;;16.30;99.90;;;;;;5032617;28;19992;-54
2021/07/01 07:04:33;;;;;;;;;;;16.30;99.90;;;;;;5032713;28;19909;-56
2021/07/01 07:06:59;;;;;;;;;;;16.40;99.90;;;;;;5032984;28;19916;-56
2021/07/01 07:09:24;;;;;;;;;;;16.40;99.90;;;;;;5033166;28;19909;-53
2021/07/01 07:11:50;;;;;;;;;;;16.40;99.90;;;;;;5032973;28;19909;-57
2021/07/01 07:14:17;;;;;;;;;;;16.40;99.90;;;;;;5032535;28;19913;-58
2021/07/01 07:16:45;;;;;;;;;;;16.50;99.90;;;;;;5032605;28;20308;-55
2021/07/01 07:19:10;;;;;;;;;;;16.60;99.90;;;;;;5032464;28;19921;-56
2021/07/01 07:21:37;;;;;;;;;;;16.60;99.90;;;;;;5014974;28;19909;-58
2021/07/01 07:24:03;;;;;;;;;;;16.60;99.90;;;;;;5032347;28;19917;-56
2021/07/01 07:26:28;;;;;;;;;;;16.70;99.90;;;;;;5032468;28;19909;-57
2021/07/01 07:28:54;;;;;;;;;;;16.70;99.90;;;;;;5014547;28;19913;-60
2021/07/01 07:31:33;;;;;;;;;;;16.80;99.90;;;;;;5032519;28;19956;-58
2021/07/01 07:34:00;;;;;;;;;;;16.80;99.90;;;;;;5030817;28;19917;-59
2021/07/01 07:36:26;;;;;;;;;;;16.90;99.90;;;;;;5031518;28;20008;-60
2021/07/01 07:38:52;;;;;;;;;;;16.90;99.90;;;;;;5032111;28;19952;-61
2021/07/01 07:41:19;;;;;;;;;;;17.00;99.90;;;;;;5032050;28;19909;-58
2021/07/01 07:43:45;;;;;;;;;;;17.00;99.90;;;;;;5031383;28;19948;-60
2021/07/01 07:46:10;;;;;;;;;;;17.00;99.90;;;;;;5031845;28;19977;-60
2021/07/01 07:48:36;;;;;;;;;;;17.00;99.90;;;;;;5031884;28;20157;-60
2021/07/01 07:51:02;;;;;;;;;;;17.10;99.90;;;;;;5031991;28;19913;-61
2021/07/01 07:53:32;;;;;;;;;;;17.10;99.90;;;;;;5014314;28;20004;-61
2021/07/01 07:56:05;;;;;;;;;;;17.20;99.90;;;;;;5031744;28;19955;-59
2021/07/01 07:58:31;;;;;;;;;;;17.30;99.90;;;;;;5031967;28;19916;-60
2021/07/01 08:00:58;;;;;;;;;;;17.30;99.90;;;;;;5030466;28;19915;-60
2021/07/01 08:03:24;;;;;;;;;;;17.40;99.90;;;;;;5014031;28;20140;-60
2021/07/01 08:05:50;;;;;;;;;;;17.50;99.90;;;;;;5031720;28;20283;-58
2021/07/01 08:08:16;;;;;;;;;;;17.60;99.90;;;;;;5032088;28;20364;-60
2021/07/01 08:10:43;;;;;;;;;;;17.70;99.90;;;;;;5031721;28;20399;-59
2021/07/01 08:13:08;;;;;;;;;;;17.80;99.90;;;;;;5031504;28;19924;-59
2021/07/01 08:15:36;;;;;;;;;;;17.80;99.90;;;;;;5031558;28;20508;-60
2021/07/01 08:18:03;;;;;;;;;;;17.90;99.90;;;;;;5031269;28;19915;-58
2021/07/01 08:20:29;;;;;;;;;;;17.90;99.90;;;;;;5014007;28;20276;-60
2021/07/01 08:22:55;;;;;;;;;;;18.00;99.90;;;;;;5031197;28;19927;-56
2021/07/01 08:25:22;;;;;;;;;;;18.10;99.90;;;;;;5031441;28;19964;-59
2021/07/01 08:27:49;;;;;;;;;;;18.10;99.90;;;;;;5031445;28;20390;-56
2021/07/01 08:30:16;;;;;;;;;;;18.20;99.90;;;;;;5031344;28;19920;-59
2021/07/01 08:32:41;;;;;;;;;;;18.20;99.90;;;;;;5030864;28;19913;-58
2021/07/01 08:35:10;;;;;;;;;;;18.20;99.90;;;;;;5031343;28;19935;-61
2021/07/01 08:37:36;;;;;;;;;;;18.20;99.90;;;;;;5031570;28;19967;-57
2021/07/01 08:40:03;;;;;;;;;;;18.20;99.90;;;;;;5013349;28;19913;-58
2021/07/01 08:42:33;;;;;;;;;;;18.20;99.90;;;;;;5013401;28;20310;-57
2021/07/01 08:45:06;;;;;;;;;;;18.20;99.90;;;;;;5012996;28;20347;-56
2021/07/01 08:47:33;;;;;;;;;;;18.30;99.90;;;;;;5030897;28;20375;-57
2021/07/01 08:50:00;;;;;;;;;;;18.30;99.90;;;;;;5030470;28;19916;-58
2021/07/01 08:52:26;;;;;;;;;;;18.30;99.90;;;;;;5030673;28;19920;-56
2021/07/01 08:55:01;;;;;;;;;;;18.30;99.90;;;;;;4996351;28;20051;-56
2021/07/01 08:57:46;;;;;;;;;;;18.40;99.90;;;;;;5024243;28;19909;-56
2021/07/01 09:00:13;;;;;;;;;;;18.50;99.90;;;;;;5030520;28;19909;-56
2021/07/01 09:02:40;;;;;;;;;;;18.50;99.90;;;;;;5031206;28;20003;-53
2021/07/01 09:05:15;;;;;;;;;;;18.60;99.90;;;;;;5030594;28;19920;-53
2021/07/01 09:07:40;;;;;;;;;;;18.60;99.90;;;;;;5030839;28;19913;-56
2021/07/01 09:10:10;;;;;;;;;;;18.70;99.90;;;;;;5030682;28;20398;-58
2021/07/01 09:12:39;;;;;;;;;;;18.70;99.90;;;;;;5030181;28;20360;-58
2021/07/01 09:15:06;;;;;;;;;;;18.70;99.90;;;;;;5029948;28;19940;-57
2021/07/01 09:17:33;;;;;;;;;;;18.70;99.90;;;;;;5030397;28;19915;-55
2021/07/01 09:20:00;;;;;;;;;;;18.70;99.90;;;;;;5030453;28;19913;-56
2021/07/01 09:22:26;;;;;;;;;;;18.80;99.90;;;;;;5030068;28;20431;-55
2021/07/01 09:24:52;;;;;;;;;;;18.70;99.90;;;;;;5012609;28;19909;-56
2021/07/01 09:27:18;;;;;;;;;;;18.70;99.90;;;;;;5030589;28;19963;-57
2021/07/01 09:29:45;;;;;;;;;;;18.70;99.90;;;;;;5030189;28;19909;-58
2021/07/01 09:32:11;;;;;;;;;;;18.70;99.90;;;;;;5030365;28;19914;-55
2021/07/01 09:34:38;;;;;;;;;;;18.60;99.90;;;;;;5012537;28;20580;-56
2021/07/01 09:37:03;;;;;;;;;;;18.70;99.90;;;;;;5030550;28;19944;-57
2021/07/01 09:39:32;;;;;;;;;;;18.70;99.90;;;;;;5029854;28;19959;-58
2021/07/01 09:42:01;;;;;;;;;;;18.70;99.90;;;;;;5030071;28;19996;-58
2021/07/01 09:44:28;;;;;;;;;;;18.70;99.90;;;;;;5029688;28;19910;-56
2021/07/01 09:46:55;;;;;;;;;;;18.80;99.90;;;;;;5030032;28;19913;-57
2021/07/01 09:49:28;;;;;;;;;;;18.70;99.90;;;;;;5029887;28;19910;-56
2021/07/01 09:51:54;;;;;;;;;;;18.70;99.90;;;;;;5029920;28;20387;-55
2021/07/01 09:54:22;;;;;;;;;;;18.70;99.90;;;;;;5029886;28;19940;-57
2021/07/01 09:56:50;;;;;;;;;;;18.80;99.90;;;;;;5029724;28;19917;-55
2021/07/01 09:59:23;;;;;;;;;;;18.90;99.90;;;;;;5022016;28;19909;-58
2021/07/01 10:01:49;;;;;;;;;;;18.90;99.90;;;;;;5029846;28;19920;-55
2021/07/01 10:04:14;;;;;;;;;;;19.10;99.90;;;;;;5029909;28;19909;-54
2021/07/01 10:06:40;;;;;;;;;;;19.30;99.90;;;;;;5029774;28;19916;-57
2021/07/01 10:09:06;;;;;;;;;;;19.30;99.90;;;;;;5029739;28;19909;-53
2021/07/01 10:11:39;;;;;;;;;;;19.40;99.90;;;;;;5029923;28;20220;-55
2021/07/01 10:14:06;;;;;;;;;;;19.40;99.90;;;;;;5029399;28;19990;-55
2021/07/01 10:16:33;;;;;;;;;;;19.40;99.90;;;;;;5029707;28;19913;-56
2021/07/01 10:18:58;;;;;;;;;;;19.50;99.90;;;;;;5029484;28;19937;-59
2021/07/01 10:21:26;;;;;;;;;;;19.60;99.90;;;;;;5029723;28;19959;-55
2021/07/01 10:24:05;;;;;;;;;;;19.60;99.90;;;;;;5031805;28;20367;-58
2021/07/01 10:26:37;;;;;;;;;;;19.60;99.90;;;;;;5033321;28;19984;-59
2021/07/01 10:29:02;;;;;;;;;;;19.70;99.90;;;;;;5033180;28;19909;-58
2021/07/01 10:31:47;;;;;;;;;;;19.80;99.90;;;;;;5015731;28;19963;-56
2021/07/01 10:34:13;;;;;;;;;;;19.80;99.90;;;;;;5033185;28;19925;-58
2021/07/01 10:36:38;;;;;;;;;;;19.90;99.90;;;;;;5033447;28;19924;-58
2021/07/01 10:39:04;;;;;;;;;;;20.00;99.90;;;;;;5033302;28;19913;-58
2021/07/01 10:41:37;;;;;;;;;;;20.00;99.90;;;;;;5033114;28;19948;-58
2021/07/01 10:44:04;;;;;;;;;;;20.00;99.90;;;;;;5032979;28;19909;-54
2021/07/01 10:46:36;;;;;;;;;;;20.10;99.90;;;;;;5032907;28;20088;-54
2021/07/01 10:49:02;;;;;;;;;;;20.10;99.90;;;;;;5032818;28;19909;-57
2021/07/01 10:51:29;;;;;;;;;;;20.20;99.90;;;;;;5033095;28;20008;-57
2021/07/01 10:54:07;;;;;;;;;;;20.40;99.90;;;;;;5032848;28;19943;-58
2021/07/01 10:56:43;;;;;;;;;;;20.60;99.90;;;;;;5032898;28;19969;-57
2021/07/01 10:59:12;;;;;;;;;;;20.80;99.90;;;;;;5031992;28;19909;-60
2021/07/01 11:01:41;;;;;;;;;;;20.80;99.90;;;;;;5033005;28;20360;-60
2021/07/01 11:04:08;;;;;;;;;;;20.90;99.90;;;;;;5033062;28;20259;-60
2021/07/01 11:06:34;;;;;;;;;;;21.00;99.90;;;;;;5032905;28;19954;-59
2021/07/01 11:09:00;;;;;;;;;;;20.90;99.90;;;;;;5032961;28;19909;-59
2021/07/01 11:11:33;;;;;;;;;;;20.90;99.90;;;;;;5033111;28;19913;-59
2021/07/01 11:14:00;;;;;;;;;;;20.90;99.90;;;;;;5032671;28;20016;-58
2021/07/01 11:16:31;;;;;;;;;;;20.80;99.90;;;;;;5014973;28;19909;-57
2021/07/01 11:18:56;;;;;;;;;;;20.80;99.90;;;;;;5032731;28;20290;-59
2021/07/01 11:21:22;;;;;;;;;;;20.90;99.90;;;;;;5032886;28;19916;-60
2021/07/01 11:23:49;;;;;;;;;;;21.00;99.90;;;;;;5032794;28;20059;-60
2021/07/01 11:26:41;;;;;;;;;;;21.20;99.90;;;;;;5031597;28;19913;-61
2021/07/01 11:29:08;;;;;;;;;;;21.40;99.90;;;;;;5027592;28;19913;-59
2021/07/01 11:31:34;;;;;;;;;;;21.60;99.90;;;;;;5032759;28;19916;-59
2021/07/01 11:34:00;;;;;;;;;;;21.90;99.90;;;;;;5067139;22;19925;-47
2021/07/01 11:36:26;;;;;;;;;;;21.90;99.90;;;;;;5051345;28;19909;-51
2021/07/01 11:39:02;;;;;;;;;;;21.90;99.90;;;;;;5052042;28;19931;-50
2021/07/01 11:41:28;;;;;;;;;;;21.90;99.90;;;;;;5052108;28;19908;-50
2021/07/01 11:43:53;;;;;;;;;;;21.90;99.90;;;;;;5052110;28;20290;-52
2021/07/01 11:46:19;;;;;;;;;;;21.80;99.90;;;;;;5051549;28;19913;-49
2021/07/01 11:48:49;;;;;;;;;;;21.90;99.90;;;;;;5051937;28;20381;-47
2021/07/01 11:51:14;;;;;;;;;;;21.90;99.90;;;;;;5051961;28;19963;-49
2021/07/01 11:53:40;;;;;;;;;;;21.90;99.90;;;;;;5051642;28;19924;-49
2021/07/01 11:56:06;;;;;;;;;;;22.10;99.90;;;;;;5051857;28;19908;-51
2021/07/01 11:58:31;;;;;;;;;;;22.30;99.90;;;;;;5051920;28;19909;-52
2021/07/01 12:00:57;;;;;;;;;;;22.20;99.90;;;;;;5051621;28;19956;-50
2021/07/01 12:03:23;;;;;;;;;;;22.10;99.90;;;;;;5051836;28;19909;-50
2021/07/01 12:05:50;;;;;;;;;;;22.00;99.90;;;;;;5051445;28;19919;-52
2021/07/01 12:08:15;;;;;;;;;;;21.90;99.90;;;;;;5043675;28;19968;-47
2021/07/01 12:10:43;;;;;;;;;;;21.90;99.90;;;;;;5051553;28;19913;-50
2021/07/01 12:13:28;;;;;;;;;;;21.90;99.90;;;;;;5033565;28;19962;-52
2021/07/01 12:16:04;;;;;;;;;;;21.90;99.90;;;;;;5051498;28;19916;-52
2021/07/01 12:18:44;;;;;;;;;;;22.00;99.90;;;;;;5051889;28;20327;-48
2021/07/01 12:21:13;;;;;;;;;;;22.00;99.90;;;;;;5051192;28;19916;-51
2021/07/01 12:23:49;;;;;;;;;;;22.10;99.90;;;;;;5051146;28;19909;-53
2021/07/01 12:26:31;;;;;;;;;;;22.40;99.90;;;;;;5050827;28;19908;-53
2021/07/01 12:28:57;;;;;;;;;;;22.50;99.90;;;;;;5033526;28;19913;-51
2021/07/01 12:31:23;;;;;;;;;;;22.50;99.90;;;;;;5051294;28;20433;-50
2021/07/01 12:33:51;;;;;;;;;;;22.30;99.90;;;;;;5050808;28;19959;-51
2021/07/01 12:36:19;;;;;;;;;;;22.10;99.90;;;;;;5030913;28;19997;-48
2021/07/01 12:39:13;;;;;;;;;;;22.00;99.90;;;;;;5045565;28;20394;-51
2021/07/01 12:41:38;;;;;;;;;;;22.00;99.90;;;;;;5045977;28;19948;-53
2021/07/01 12:44:05;;;;;;;;;;;22.10;99.90;;;;;;5050962;28;19947;-49
2021/07/01 12:46:46;;;;;;;;;;;22.20;99.90;;;;;;5050097;28;19909;-49
2021/07/01 12:49:14;;;;;;;;;;;22.20;99.90;;;;;;5050727;28;19931;-51
2021/07/01 12:51:43;;;;;;;;;;;22.10;99.90;;;;;;5050600;28;19995;-50
2021/07/01 12:54:27;;;;;;;;;;;22.10;99.90;;;;;;5050615;28;19963;-49
2021/07/01 12:56:55;;;;;;;;;;;22.10;99.90;;;;;;5050544;28;20298;-47
2021/07/01 12:59:22;;;;;;;;;;;22.10;99.90;;;;;;5050850;28;19913;-46
2021/07/01 13:01:48;;;;;;;;;;;22.10;99.90;;;;;;5050970;28;19908;-50
2021/07/01 13:04:20;;;;;;;;;;;22.10;99.90;;;;;;5050658;28;19915;-50
2021/07/01 13:06:46;;;;;;;;;;;22.20;99.90;;;;;;5050571;28;19913;-48
2021/07/01 13:09:25;;;;;;;;;;;22.20;99.90;;;;;;5050507;28;19963;-51
2021/07/01 13:11:51;;;;;;;;;;;22.20;99.90;;;;;;5050568;28;19913;-48
2021/07/01 13:14:16;;;;;;;;;;;22.20;99.90;;;;;;5050439;28;19958;-50
2021/07/01 13:16:42;;;;;;;;;;;22.10;99.90;;;;;;5050358;28;19908;-50
2021/07/01 13:19:17;;;;;;;;;;;22.10;99.90;;;;;;5050255;28;19915;-49
2021/07/01 13:21:48;;;;;;;;;;;22.10;99.90;;;;;;5050515;28;19915;-49
2021/07/01 13:24:16;;;;;;;;;;;22.00;99.90;;;;;;5050008;28;19909;-48
2021/07/01 13:26:42;;;;;;;;;;;21.90;99.90;;;;;;5050382;28;20323;-51
2021/07/01 13:29:07;;;;;;;;;;;21.90;99.90;;;;;;5050422;28;19916;-46
2021/07/01 13:31:32;;;;;;;;;;;21.70;99.90;;;;;;5050380;28;20397;-54
2021/07/01 13:34:05;;;;;;;;;;;21.60;99.90;;;;;;5050260;28;19917;-48
2021/07/01 13:36:30;;;;;;;;;;;21.50;99.90;;;;;;5049894;28;19978;-49
2021/07/01 13:38:55;;;;;;;;;;;21.40;99.90;;;;;;5050185;28;20389;-55
2021/07/01 13:41:27;;;;;;;;;;;21.40;99.90;;;;;;5050023;28;19909;-53
2021/07/01 13:43:53;;;;;;;;;;;21.30;99.90;;;;;;5050045;28;19916;-55
2021/07/01 13:46:21;;;;;;;;;;;21.30;99.90;;;;;;5049611;28;19913;-51
2021/07/01 13:48:47;;;;;;;;;;;21.20;99.90;;;;;;5049877;28;20299;-53
2021/07/01 13:51:14;;;;;;;;;;;21.10;99.90;;;;;;5049902;28;19909;-50
2021/07/01 13:53:44;;;;;;;;;;;21.00;99.90;;;;;;5049683;28;19997;-48
2021/07/01 13:56:10;;;;;;;;;;;20.90;99.90;;;;;;5049866;28;20534;-50
2021/07/01 13:58:38;;;;;;;;;;;20.80;99.90;;;;;;5051834;28;19931;-48
2021/07/01 14:01:06;;;;;;;;;;;20.70;99.90;;;;;;5054235;28;19908;-52
2021/07/01 14:03:33;;;;;;;;;;;20.70;99.90;;;;;;5035829;28;19916;-53
2021/07/01 14:06:02;;;;;;;;;;;20.70;99.90;;;;;;5053542;28;19954;-51
2021/07/01 14:08:36;;;;;;;;;;;20.70;99.90;;;;;;5053752;28;20421;-53
2021/07/01 14:11:11;;;;;;;;;;;20.60;99.90;;;;;;5053515;28;19940;-49
2021/07/01 14:13:47;;;;;;;;;;;20.60;99.90;;;;;;5053557;28;19983;-50
2021/07/01 14:16:17;;;;;;;;;;;20.50;99.90;;;;;;5053009;28;19909;-53